createdAt,value
2019-04-29T00:00:30.112Z,-76
2019-04-29T00:02:59.558Z,-77
2019-04-29T00:05:28.981Z,-77
2019-04-29T00:07:58.335Z,-77
2019-04-29T00:10:27.680Z,-77
2019-04-29T00:12:57.056Z,-77
2019-04-29T00:15:30.646Z,-77
2019-04-29T00:18:04.270Z,-77
2019-04-29T00:20:37.966Z,-77
2019-04-29T00:23:07.372Z,-77
2019-04-29T00:25:36.697Z,-77
2019-04-29T00:28:05.882Z,-77
2019-04-29T00:30:35.232Z,-77
2019-04-29T00:33:04.626Z,-77
2019-04-29T00:35:34.050Z,-77
2019-04-29T00:38:07.993Z,-77
2019-04-29T00:40:44.998Z,-78
2019-04-29T00:43:15.709Z,-77
2019-04-29T00:45:45.524Z,-77
2019-04-29T00:48:14.615Z,-77
2019-04-29T00:50:43.704Z,-77
2019-04-29T00:53:13.227Z,-77
2019-04-29T00:55:51.616Z,-77
2019-04-29T01:00:55.813Z,-76
2019-04-29T01:03:25.199Z,-76
2019-04-29T01:05:54.641Z,-76
2019-04-29T01:08:24.085Z,-76
2019-04-29T01:10:53.455Z,-76
2019-04-29T01:13:22.849Z,-76
2019-04-29T01:15:52.309Z,-76
2019-04-29T01:18:21.946Z,-76
2019-04-29T01:20:51.345Z,-77
2019-04-29T01:23:20.699Z,-77
2019-04-29T01:25:51.412Z,-76
2019-04-29T01:28:27.812Z,-77
2019-04-29T01:31:03.637Z,-77
2019-04-29T01:33:40.453Z,-79
2019-04-29T01:36:18.622Z,-79
2019-04-29T01:38:52.333Z,-79
2019-04-29T01:41:26.142Z,-79
2019-04-29T01:44:04.866Z,-79
2019-04-29T01:46:37.400Z,-79
2019-04-29T01:49:06.524Z,-79
2019-04-29T01:51:35.632Z,-79
2019-04-29T01:54:05.075Z,-79
2019-04-29T01:56:34.154Z,-79
2019-04-29T01:59:03.512Z,-80
2019-04-29T02:01:32.849Z,-79
2019-04-29T02:04:02.201Z,-79
2019-04-29T02:06:31.272Z,-79
2019-04-29T02:09:00.632Z,-79
2019-04-29T02:11:29.960Z,-79
2019-04-29T02:13:59.286Z,-79
2019-04-29T02:16:28.716Z,-79
2019-04-29T02:18:57.831Z,-79
2019-04-29T02:21:27.321Z,-79
2019-04-29T02:24:04.377Z,-78
2019-04-29T02:26:33.444Z,-78
2019-04-29T02:29:02.523Z,-78
2019-04-29T02:31:41.951Z,-79
2019-04-29T02:34:11.368Z,-78
2019-04-29T02:36:40.728Z,-79
2019-04-29T02:39:17.873Z,-78
2019-04-29T02:41:54.570Z,-78
2019-04-29T02:44:23.924Z,-78
2019-04-29T02:46:53.014Z,-78
2019-04-29T02:49:22.382Z,-79
2019-04-29T02:51:53.123Z,-79
2019-04-29T02:54:24.320Z,-79
2019-04-29T02:56:57.692Z,-78
2019-04-29T02:59:31.125Z,-78
2019-04-29T03:02:14.053Z,-78
2019-04-29T03:04:50.948Z,-78
2019-04-29T03:07:20.953Z,-79
2019-04-29T03:09:50.462Z,-79
2019-04-29T03:12:19.779Z,-78
2019-04-29T03:14:49.142Z,-78
2019-04-29T03:17:19.061Z,-78
2019-04-29T03:20:06.204Z,-79
2019-04-29T03:22:35.990Z,-78
2019-04-29T03:25:06.059Z,-78
2019-04-29T03:27:35.435Z,-78
2019-04-29T03:30:06.175Z,-79
2019-04-29T03:32:35.531Z,-78
2019-04-29T03:35:06.504Z,-78
2019-04-29T03:37:36.014Z,-78
2019-04-29T03:40:07.646Z,-78
2019-04-29T03:42:36.991Z,-78
2019-04-29T03:45:07.952Z,-79
2019-04-29T03:47:37.097Z,-78
2019-04-29T03:50:07.016Z,-79
2019-04-29T03:52:36.378Z,-79
2019-04-29T03:55:06.246Z,-79
2019-04-29T03:57:37.257Z,-79
2019-04-29T04:00:08.950Z,-79
2019-04-29T04:02:42.966Z,-79
2019-04-29T04:05:16.644Z,-79
2019-04-29T04:07:50.052Z,-79
2019-04-29T04:14:18.807Z,-72
2019-04-29T04:16:55.788Z,-72
2019-04-29T04:19:26.044Z,-72
2019-04-29T04:21:55.214Z,-71
2019-04-29T04:24:24.417Z,-72
2019-04-29T04:26:53.820Z,-72
2019-04-29T04:29:23.242Z,-73
2019-04-29T04:31:52.669Z,-72
2019-04-29T04:34:21.840Z,-72
2019-04-29T04:36:50.987Z,-72
2019-04-29T04:39:20.434Z,-72
2019-04-29T04:41:49.855Z,-72
2019-04-29T04:44:19.328Z,-72
2019-04-29T04:46:48.721Z,-73
2019-04-29T04:49:18.470Z,-72
2019-04-29T04:51:47.681Z,-73
2019-04-29T04:54:17.079Z,-73
2019-04-29T04:56:46.516Z,-72
2019-04-29T04:59:15.677Z,-72
2019-04-29T05:01:45.117Z,-72
2019-04-29T05:04:14.645Z,-72
2019-04-29T05:06:44.066Z,-72
2019-04-29T05:09:13.216Z,-72
2019-04-29T05:11:42.917Z,-73
2019-04-29T05:14:12.325Z,-72
2019-04-29T05:16:41.725Z,-73
2019-04-29T05:19:11.129Z,-72
2019-04-29T05:21:40.546Z,-72
2019-04-29T05:24:13.055Z,-72
2019-04-29T05:26:42.242Z,-72
2019-04-29T05:29:11.689Z,-72
2019-04-29T05:31:41.114Z,-72
2019-04-29T05:34:11.002Z,-72
2019-04-29T05:36:45.060Z,-72
2019-04-29T05:39:33.882Z,-72
2019-04-29T05:42:07.768Z,-72
2019-04-29T05:44:51.074Z,-72
2019-04-29T05:47:21.907Z,-72
2019-04-29T05:50:11.968Z,-72
2019-04-29T05:52:41.978Z,-72
2019-04-29T05:55:13.882Z,-72
2019-04-29T05:57:42.577Z,-72
2019-04-29T06:00:12.610Z,-72
2019-04-29T06:02:42.039Z,-72
2019-04-29T06:05:11.618Z,-72
2019-04-29T06:07:41.044Z,-72
2019-04-29T06:10:11.404Z,-72
2019-04-29T06:12:40.825Z,-72
2019-04-29T06:15:10.423Z,-72
2019-04-29T06:17:44.179Z,-72
2019-04-29T06:20:13.143Z,-72
2019-04-29T06:22:43.565Z,-72
2019-04-29T06:25:12.875Z,-72
2019-04-29T06:27:42.301Z,-72
2019-04-29T06:30:12.024Z,-72
2019-04-29T06:32:41.429Z,-72
2019-04-29T06:35:14.134Z,-73
2019-04-29T06:37:41.787Z,-72
2019-04-29T06:40:11.537Z,-72
2019-04-29T06:42:41.239Z,-72
2019-04-29T06:45:11.000Z,-72
2019-04-29T06:47:40.437Z,-73
2019-04-29T06:50:09.875Z,-73
2019-04-29T06:52:39.264Z,-72
2019-04-29T06:55:08.834Z,-73
2019-04-29T06:57:38.001Z,-73
2019-04-29T07:00:07.272Z,-73
2019-04-29T07:02:37.168Z,-72
2019-04-29T07:05:07.431Z,-72
2019-04-29T07:07:36.858Z,-73
2019-04-29T07:10:06.724Z,-73
2019-04-29T07:12:36.042Z,-71
2019-04-29T07:15:07.705Z,-71
2019-04-29T07:17:41.372Z,-73
2019-04-29T07:20:08.829Z,-72
2019-04-29T07:22:38.011Z,-73
2019-04-29T07:25:08.111Z,-73
2019-04-29T07:27:42.959Z,-73
2019-04-29T07:30:09.161Z,-73
2019-04-29T07:32:42.116Z,-73
2019-04-29T07:35:11.545Z,-76
2019-04-29T07:37:41.061Z,-78
2019-04-29T07:40:11.079Z,-76
2019-04-29T07:42:40.482Z,-76
2019-04-29T07:45:11.948Z,-76
2019-04-29T07:47:55.385Z,-77
2019-04-29T07:50:13.236Z,-73
2019-04-29T07:52:45.729Z,-78
2019-04-29T07:55:14.700Z,-76
2019-04-29T07:57:47.731Z,-78
2019-04-29T08:00:19.393Z,-79
2019-04-29T08:02:48.716Z,-78
2019-04-29T08:05:17.863Z,-78
2019-04-29T08:07:47.673Z,-78
2019-04-29T08:10:23.791Z,-78
2019-04-29T08:12:50.915Z,-78
2019-04-29T08:15:20.370Z,-78
2019-04-29T08:17:51.487Z,-78
2019-04-29T08:20:21.785Z,-78
2019-04-29T08:22:51.248Z,-78
2019-04-29T08:25:26.045Z,-79
2019-04-29T08:28:08.493Z,-78
2019-04-29T08:30:41.805Z,-78
2019-04-29T08:33:11.944Z,-78
2019-04-29T08:35:41.132Z,-78
2019-04-29T08:38:10.523Z,-78
2019-04-29T08:40:40.158Z,-78
2019-04-29T08:43:20.610Z,-78
2019-04-29T08:45:58.494Z,-78
2019-04-29T08:48:30.823Z,-78
2019-04-29T08:51:00.032Z,-79
2019-04-29T08:53:29.460Z,-78
2019-04-29T08:55:58.902Z,-79
2019-04-29T08:58:28.334Z,-78
2019-04-29T09:00:58.136Z,-78
2019-04-29T09:03:40.046Z,-78
2019-04-29T09:06:05.389Z,-78
2019-04-29T09:08:32.825Z,-78
2019-04-29T09:11:08.160Z,-79
2019-04-29T09:13:37.375Z,-78
2019-04-29T09:16:08.581Z,-79
2019-04-29T09:18:39.092Z,-79
2019-04-29T09:21:08.841Z,-78
2019-04-29T09:23:38.530Z,-79
2019-04-29T09:26:15.339Z,-79
2019-04-29T09:28:44.740Z,-79
2019-04-29T09:31:14.346Z,-78
2019-04-29T09:33:48.479Z,-78
2019-04-29T09:36:15.252Z,-78
2019-04-29T09:38:44.608Z,-78
2019-04-29T09:41:24.410Z,-79
2019-04-29T09:43:59.229Z,-79
2019-04-29T09:46:30.070Z,-78
2019-04-29T09:48:59.515Z,-79
2019-04-29T09:51:29.756Z,-79
2019-04-29T09:53:59.260Z,-79
2019-04-29T09:56:28.742Z,-78
2019-04-29T09:59:15.606Z,-78
2019-04-29T10:01:50.611Z,-79
2019-04-29T10:04:29.373Z,-78
2019-04-29T10:06:58.942Z,-78
2019-04-29T10:09:28.339Z,-78
2019-04-29T10:11:57.744Z,-78
2019-04-29T10:14:26.902Z,-78
2019-04-29T10:17:15.442Z,-78
2019-04-29T10:19:48.933Z,-78
2019-04-29T10:22:18.371Z,-78
2019-04-29T10:24:47.850Z,-78
2019-04-29T10:27:17.279Z,-78
2019-04-29T10:29:50.713Z,-78
2019-04-29T10:32:19.474Z,-77
2019-04-29T10:34:49.299Z,-78
2019-04-29T10:37:18.691Z,-78
2019-04-29T10:39:52.274Z,-78
2019-04-29T10:42:30.189Z,-78
2019-04-29T10:45:16.766Z,-78
2019-04-29T10:47:53.727Z,-78
2019-04-29T10:50:29.215Z,-78
2019-04-29T10:52:58.449Z,-78
2019-04-29T10:55:29.975Z,-79
2019-04-29T10:57:59.320Z,-79
2019-04-29T11:00:48.106Z,-78
2019-04-29T11:03:20.764Z,-78
2019-04-29T11:06:00.475Z,-77
2019-04-29T11:08:25.154Z,-77
2019-04-29T11:11:02.196Z,-77
2019-04-29T11:13:26.490Z,-77
2019-04-29T11:15:56.229Z,-77
2019-04-29T11:18:25.638Z,-77
2019-04-29T11:20:55.531Z,-77
2019-04-29T11:23:32.437Z,-77
2019-04-29T11:26:12.180Z,-77
2019-04-29T11:28:46.889Z,-77
2019-04-29T11:31:18.916Z,-77
2019-04-29T11:34:05.451Z,-77
2019-04-29T11:36:38.767Z,-77
2019-04-29T11:39:13.606Z,-78
2019-04-29T11:41:40.072Z,-77
2019-04-29T11:44:09.566Z,-77
2019-04-29T11:46:38.757Z,-77
2019-04-29T11:49:08.588Z,-78
2019-04-29T11:52:07.384Z,-77
2019-04-29T11:54:17.858Z,-78
2019-04-29T11:56:44.511Z,-78
2019-04-29T11:59:15.483Z,-78
2019-04-29T12:01:51.008Z,-78
2019-04-29T12:04:28.629Z,-78
2019-04-29T12:06:58.123Z,-78
2019-04-29T12:09:30.571Z,-78
2019-04-29T12:11:58.785Z,-78
2019-04-29T12:14:41.869Z,-78
2019-04-29T12:17:18.901Z,-78
2019-04-29T12:19:49.974Z,-78
2019-04-29T12:22:28.400Z,-78
2019-04-29T12:24:50.466Z,-78
2019-04-29T12:27:21.760Z,-78
2019-04-29T12:29:54.386Z,-78
2019-04-29T12:32:24.886Z,-78
2019-04-29T12:34:58.946Z,-78
2019-04-29T12:37:38.968Z,-78
2019-04-29T12:40:26.637Z,-78
2019-04-29T12:43:15.960Z,-78
2019-04-29T12:46:00.969Z,-78
2019-04-29T12:48:30.499Z,-78
2019-04-29T12:50:59.879Z,-78
2019-04-29T12:53:29.285Z,-78
2019-04-29T12:55:58.692Z,-78
2019-04-29T12:58:28.112Z,-78
2019-04-29T13:01:01.118Z,-78
2019-04-29T13:03:39.911Z,-78
2019-04-29T13:06:13.386Z,-78
2019-04-29T13:08:47.492Z,-78
2019-04-29T13:11:19.168Z,-78
2019-04-29T13:13:51.244Z,-78
2019-04-29T13:16:28.379Z,-78
2019-04-29T13:19:11.839Z,-78
2019-04-29T13:21:39.693Z,-78
2019-04-29T13:24:18.287Z,-78
2019-04-29T13:26:42.898Z,-78
2019-04-29T13:29:26.324Z,-78
2019-04-29T13:31:43.089Z,-78
2019-04-29T13:34:23.663Z,-78
2019-04-29T13:36:44.849Z,-71
2019-04-29T13:39:14.827Z,-71
2019-04-29T13:41:57.003Z,-72
2019-04-29T13:44:19.422Z,-74
2019-04-29T13:47:04.142Z,-73
2019-04-29T13:49:37.919Z,-73
2019-04-29T13:52:07.136Z,-73
2019-04-29T13:54:37.234Z,-73
2019-04-29T13:57:11.381Z,-73
2019-04-29T13:59:49.272Z,-74
2019-04-29T14:02:22.244Z,-72
2019-04-29T14:04:55.881Z,-75
2019-04-29T14:07:25.346Z,-72
2019-04-29T14:09:54.802Z,-72
2019-04-29T14:12:47.918Z,-73
2019-04-29T14:14:58.581Z,-73
2019-04-29T14:17:31.591Z,-74
2019-04-29T14:19:57.865Z,-74
2019-04-29T14:22:27.324Z,-73
2019-04-29T14:24:56.659Z,-73
2019-04-29T14:27:25.831Z,-73
2019-04-29T14:29:55.189Z,-73
2019-04-29T14:32:34.700Z,-73
2019-04-29T14:35:11.845Z,-73
2019-04-29T14:37:54.300Z,-73
2019-04-29T14:40:14.040Z,-73
2019-04-29T14:42:57.889Z,-73
2019-04-29T14:45:27.654Z,-74
2019-04-29T14:48:14.791Z,-74
2019-04-29T14:50:45.569Z,-73
2019-04-29T14:53:15.053Z,-73
2019-04-29T14:55:44.391Z,-74
2019-04-29T14:58:13.728Z,-73
2019-04-29T15:00:53.231Z,-74
2019-04-29T15:03:41.879Z,-74
2019-04-29T15:06:11.409Z,-73
2019-04-29T15:08:40.534Z,-73
2019-04-29T15:11:10.920Z,-73
2019-04-29T15:13:43.187Z,-74
2019-04-29T15:16:14.004Z,-73
2019-04-29T15:18:51.392Z,-74
2019-04-29T15:21:32.565Z,-74
2019-04-29T15:23:59.173Z,-74
2019-04-29T15:26:28.570Z,-75
2019-04-29T15:28:57.766Z,-74
2019-04-29T15:31:27.110Z,-74
2019-04-29T15:33:56.497Z,-74
2019-04-29T15:36:30.709Z,-73
2019-04-29T15:39:09.909Z,-74
2019-04-29T15:41:32.904Z,-75
2019-04-29T15:44:07.824Z,-75
2019-04-29T15:46:45.466Z,-74
2019-04-29T15:49:03.633Z,-74
2019-04-29T15:51:33.041Z,-74
2019-04-29T15:54:02.186Z,-75
2019-04-29T15:56:33.821Z,-74
2019-04-29T16:01:33.082Z,-76
2019-04-29T16:04:04.089Z,-76
2019-04-29T16:06:39.942Z,-76
2019-04-29T16:09:23.591Z,-76
2019-04-29T16:11:55.282Z,-76
2019-04-29T16:14:25.443Z,-76
2019-04-29T16:16:54.836Z,-75
2019-04-29T16:19:23.958Z,-75
2019-04-29T16:21:53.559Z,-76
2019-04-29T16:26:54.043Z,-76
2019-04-29T16:29:23.127Z,-76
2019-04-29T16:34:23.665Z,-76
2019-04-29T16:36:53.016Z,-75
2019-04-29T16:39:22.406Z,-76
2019-04-29T16:42:05.020Z,-75
2019-04-29T16:44:36.256Z,-76
2019-04-29T16:47:07.377Z,-75
2019-04-29T16:49:37.748Z,-75
2019-04-29T16:52:07.163Z,-75
2019-04-29T16:54:36.588Z,-76
2019-04-29T16:57:06.288Z,-75
2019-04-29T16:59:35.371Z,-75
2019-04-29T17:02:04.503Z,-75
2019-04-29T17:04:33.868Z,-75
2019-04-29T17:09:53.929Z,-76
2019-04-29T17:12:29.317Z,-75
2019-04-29T17:15:04.003Z,-75
2019-04-29T17:19:58.504Z,-76
2019-04-29T17:22:27.836Z,-76
2019-04-29T17:24:57.312Z,-75
2019-04-29T17:27:45.377Z,-75
2019-04-29T17:30:18.864Z,-75
2019-04-29T17:32:51.024Z,-76
2019-04-29T17:35:14.560Z,-75
2019-04-29T17:35:15.775Z,-76
2019-04-29T17:35:17.327Z,-76
2019-04-29T17:35:17.460Z,-76
2019-04-29T17:35:18.850Z,-75
2019-04-29T17:35:22.407Z,-75
2019-04-29T17:37:52.219Z,-75
2019-04-29T17:40:21.733Z,-75
2019-04-29T17:43:04.874Z,-74
2019-04-29T17:45:34.264Z,-75
2019-04-29T17:48:08.776Z,-75
2019-04-29T17:50:46.144Z,-75
2019-04-29T17:53:15.353Z,-75
2019-04-29T17:55:50.101Z,-75
2019-04-29T17:58:23.602Z,-76
2019-04-29T18:01:00.121Z,-76
2019-04-29T18:03:47.532Z,-75
2019-04-29T18:06:24.347Z,-76
2019-04-29T18:08:50.948Z,-75
2019-04-29T18:11:20.055Z,-75
2019-04-29T18:13:52.572Z,-75
2019-04-29T18:16:26.584Z,-75
2019-04-29T18:19:01.917Z,-75
2019-04-29T18:21:49.274Z,-75
2019-04-29T18:24:22.969Z,-76
2019-04-29T18:26:53.968Z,-76
2019-04-29T18:29:23.327Z,-76
2019-04-29T18:31:52.441Z,-74
2019-04-29T18:34:21.816Z,-76
2019-04-29T18:36:54.622Z,-76
2019-04-29T18:39:25.083Z,-76
2019-04-29T18:41:54.791Z,-76
2019-04-29T18:44:25.801Z,-76
2019-04-29T18:46:57.208Z,-77
2019-04-29T18:49:25.939Z,-75
2019-04-29T18:51:57.892Z,-77
2019-04-29T18:54:27.027Z,-76
2019-04-29T18:56:56.120Z,-76
2019-04-29T18:59:33.261Z,-76
2019-04-29T19:01:56.373Z,-76
2019-04-29T19:04:30.068Z,-76
2019-04-29T19:07:02.453Z,-76
2019-04-29T19:09:35.948Z,-76
2019-04-29T19:12:05.216Z,-75
2019-04-29T19:14:35.268Z,-75
2019-04-29T19:17:07.776Z,-76
2019-04-29T19:19:39.297Z,-76
2019-04-29T19:22:09.398Z,-75
2019-04-29T19:24:38.710Z,-76
2019-04-29T19:27:10.010Z,-76
2019-04-29T19:29:43.370Z,-75
2019-04-29T19:32:09.778Z,-76
2019-04-29T19:34:42.797Z,-76
2019-04-29T19:37:09.677Z,-77
2019-04-29T19:39:38.860Z,-75
2019-04-29T19:42:35.709Z,-77
2019-04-29T19:45:06.392Z,-81
2019-04-29T19:47:33.651Z,-81
2019-04-29T19:50:03.085Z,-79
2019-04-29T19:52:32.616Z,-79
2019-04-29T19:55:03.216Z,-79
2019-04-29T19:57:35.174Z,-79
2019-04-29T20:00:06.207Z,-79
2019-04-29T20:02:35.856Z,-80
2019-04-29T20:05:31.508Z,-79
2019-04-29T20:07:58.778Z,-80
2019-04-29T20:10:29.480Z,-80
2019-04-29T20:12:58.543Z,-79
2019-04-29T20:15:32.356Z,-80
2019-04-29T20:18:08.678Z,-79
2019-04-29T20:20:42.558Z,-79
2019-04-29T20:23:11.632Z,-79
2019-04-29T20:25:40.752Z,-78
2019-04-29T20:28:17.031Z,-79
2019-04-29T20:30:41.047Z,-80
2019-04-29T20:33:12.623Z,-79
2019-04-29T20:35:45.455Z,-79
2019-04-29T20:38:12.452Z,-79
2019-04-29T20:40:43.476Z,-79
2019-04-29T20:43:13.128Z,-79
2019-04-29T20:45:42.576Z,-79
2019-04-29T20:48:15.974Z,-79
2019-04-29T20:50:47.709Z,-79
2019-04-29T20:53:15.884Z,-76
2019-04-29T20:55:46.094Z,-77
2019-04-29T20:58:15.907Z,-76
2019-04-29T21:00:45.703Z,-77
2019-04-29T21:03:26.901Z,-76
2019-04-29T21:05:49.813Z,-76
2019-04-29T21:08:19.197Z,-76
2019-04-29T21:10:50.221Z,-76
2019-04-29T21:13:21.265Z,-76
2019-04-29T21:15:53.769Z,-76
2019-04-29T21:18:25.076Z,-76
2019-04-29T21:20:55.144Z,-76
2019-04-29T21:23:24.801Z,-76
2019-04-29T21:25:55.984Z,-76
2019-04-29T21:28:25.208Z,-76
2019-04-29T21:30:55.081Z,-76
2019-04-29T21:33:25.498Z,-76
2019-04-29T21:35:59.675Z,-76
2019-04-29T21:38:48.354Z,-76
2019-04-29T21:41:27.590Z,-76
2019-04-29T21:43:57.172Z,-76
2019-04-29T21:46:29.509Z,-76
2019-04-29T21:48:57.424Z,-76
2019-04-29T21:51:26.893Z,-76
2019-04-29T21:53:56.302Z,-76
2019-04-29T21:56:28.254Z,-76
2019-04-29T21:58:57.455Z,-76
2019-04-29T22:01:29.490Z,-76
2019-04-29T22:04:02.005Z,-76
2019-04-29T22:06:30.194Z,-76
2019-04-29T22:09:01.307Z,-77
2019-04-29T22:11:31.485Z,-77
2019-04-29T22:14:00.924Z,-77
2019-04-29T22:16:30.975Z,-78
2019-04-29T22:19:00.263Z,-78
2019-04-29T22:21:30.197Z,-76
2019-04-29T22:23:59.391Z,-80
2019-04-29T22:26:28.782Z,-80
2019-04-29T22:29:03.151Z,-79
2019-04-29T22:31:34.008Z,-80
2019-04-29T22:34:00.746Z,-80
2019-04-29T22:36:30.245Z,-80
2019-04-29T22:38:59.729Z,-80
2019-04-29T22:41:33.713Z,-80
2019-04-29T22:44:04.973Z,-80
2019-04-29T22:46:35.680Z,-80
2019-04-29T22:49:05.831Z,-80
2019-04-29T22:51:35.587Z,-80
2019-04-29T22:54:04.899Z,-80
2019-04-29T22:56:36.033Z,-80
2019-04-29T22:59:06.181Z,-79
2019-04-29T23:01:36.365Z,-80
2019-04-29T23:04:09.543Z,-79
2019-04-29T23:06:39.808Z,-80
2019-04-29T23:09:11.990Z,-80
2019-04-29T23:11:40.820Z,-79
2019-04-29T23:14:10.406Z,-78
2019-04-29T23:16:39.818Z,-79
2019-04-29T23:19:14.020Z,-79
2019-04-29T23:21:52.081Z,-79
2019-04-29T23:24:38.916Z,-79
2019-04-29T23:27:11.683Z,-79
2019-04-29T23:29:43.230Z,-80
2019-04-29T23:32:10.970Z,-79
2019-04-29T23:34:40.177Z,-79
2019-04-29T23:37:12.478Z,-79
2019-04-29T23:39:41.935Z,-79
2019-04-29T23:42:12.402Z,-78
2019-04-29T23:44:44.159Z,-77
2019-04-29T23:47:13.619Z,-79
2019-04-29T23:49:44.945Z,-80
2019-04-29T23:52:15.986Z,-79
2019-04-29T23:54:48.510Z,-80
2019-04-29T23:57:24.845Z,-80
